createdAt,value
2018-03-20T00:00:52.563Z,0.00
2018-03-20T00:01:52.554Z,0.00
2018-03-20T00:02:52.562Z,0.00
2018-03-20T00:03:52.540Z,0.00
2018-03-20T00:05:13.543Z,0.00
2018-03-20T00:05:52.525Z,0.00
2018-03-20T00:06:52.516Z,0.00
2018-03-20T00:07:52.558Z,0.00
2018-03-20T00:08:52.500Z,0.00
2018-03-20T00:09:52.495Z,0.00
2018-03-20T00:11:13.491Z,0.00
2018-03-20T00:11:52.480Z,0.00
2018-03-20T00:12:52.475Z,0.00
2018-03-20T00:13:52.472Z,0.00
2018-03-20T00:14:52.462Z,0.00
2018-03-20T00:15:52.461Z,0.00
2018-03-20T00:17:13.456Z,0.00
2018-03-20T00:17:52.446Z,0.00
2018-03-20T00:18:52.433Z,0.00
2018-03-20T00:19:52.433Z,0.00
2018-03-20T00:20:52.428Z,0.00
2018-03-20T00:21:52.414Z,0.00
2018-03-20T00:23:13.422Z,0.00
2018-03-20T00:23:52.401Z,0.00
2018-03-20T00:24:52.388Z,0.00
2018-03-20T00:25:52.390Z,0.00
2018-03-20T00:26:52.379Z,0.00
2018-03-20T00:27:52.373Z,0.00
2018-03-20T00:29:13.368Z,0.00
2018-03-20T00:29:52.354Z,0.00
2018-03-20T00:30:52.350Z,0.00
2018-03-20T00:31:52.348Z,0.00
2018-03-20T00:32:52.337Z,0.00
2018-03-20T00:33:52.326Z,0.00
2018-03-20T00:35:13.328Z,0.00
2018-03-20T00:35:52.314Z,0.00
2018-03-20T00:36:52.309Z,0.00
2018-03-20T00:37:52.302Z,0.00
2018-03-20T00:38:52.300Z,0.00
2018-03-20T00:39:52.297Z,0.00
2018-03-20T00:41:13.285Z,0.00
2018-03-20T00:41:52.282Z,0.00
2018-03-20T00:42:52.266Z,0.00
2018-03-20T00:43:52.263Z,0.00
2018-03-20T00:44:52.251Z,0.00
2018-03-20T00:45:52.244Z,0.00
2018-03-20T00:47:13.242Z,0.00
2018-03-20T00:47:52.233Z,0.00
2018-03-20T00:48:52.222Z,0.00
2018-03-20T00:49:52.219Z,0.00
2018-03-20T00:50:52.214Z,0.00
2018-03-20T00:51:52.219Z,0.00
2018-03-20T00:53:13.210Z,0.00
2018-03-20T00:53:52.196Z,0.00
2018-03-20T00:54:52.184Z,0.00
2018-03-20T00:55:52.179Z,0.00
2018-03-20T00:56:52.170Z,0.00
2018-03-20T00:57:52.161Z,0.00
2018-03-20T00:59:13.158Z,0.00
2018-03-20T00:59:52.147Z,0.00
2018-03-20T01:00:52.141Z,0.00
2018-03-20T01:01:52.132Z,0.00
2018-03-20T01:02:52.136Z,0.00
2018-03-20T01:03:52.123Z,0.00
2018-03-20T01:05:13.122Z,0.00
2018-03-20T01:05:52.110Z,0.00
2018-03-20T01:06:52.103Z,0.00
2018-03-20T01:07:52.102Z,0.00
2018-03-20T01:08:52.089Z,0.00
2018-03-20T01:09:52.080Z,0.00
2018-03-20T01:11:13.083Z,0.00
2018-03-20T01:11:52.067Z,0.00
2018-03-20T01:12:52.064Z,0.00
2018-03-20T01:13:52.055Z,0.00
2018-03-20T01:14:52.050Z,0.00
2018-03-20T01:15:52.045Z,0.00
2018-03-20T01:17:13.074Z,0.00
2018-03-20T01:17:52.061Z,0.00
2018-03-20T01:18:52.019Z,0.00
2018-03-20T01:19:52.016Z,0.00
2018-03-20T01:20:52.003Z,0.00
2018-03-20T01:21:52.026Z,0.00
2018-03-20T01:23:13.007Z,0.00
2018-03-20T01:23:52.001Z,0.00
2018-03-20T01:24:51.978Z,0.00
2018-03-20T01:25:51.984Z,0.00
2018-03-20T01:26:51.967Z,0.00
2018-03-20T01:27:51.959Z,0.00
2018-03-20T01:29:12.957Z,0.00
2018-03-20T01:29:51.947Z,0.00
2018-03-20T01:30:51.944Z,0.00
2018-03-20T01:31:51.939Z,0.00
2018-03-20T01:32:51.924Z,0.00
2018-03-20T01:33:51.917Z,0.00
2018-03-20T01:35:12.915Z,0.00
2018-03-20T01:35:51.905Z,0.00
2018-03-20T01:36:51.902Z,0.00
2018-03-20T01:37:51.894Z,0.00
2018-03-20T01:38:51.889Z,0.00
2018-03-20T01:39:51.879Z,0.00
2018-03-20T01:41:12.875Z,0.00
2018-03-20T01:41:51.871Z,0.00
2018-03-20T01:42:51.853Z,0.00
2018-03-20T01:43:51.849Z,0.00
2018-03-20T01:44:51.841Z,0.00
2018-03-20T01:45:51.841Z,0.00
2018-03-20T01:47:12.836Z,0.00
2018-03-20T01:47:51.826Z,0.00
2018-03-20T01:48:51.813Z,0.00
2018-03-20T01:49:51.808Z,0.00
2018-03-20T01:50:51.816Z,0.00
2018-03-20T01:51:51.795Z,0.00
2018-03-20T01:53:12.792Z,0.00
2018-03-20T01:53:51.783Z,0.00
2018-03-20T01:54:51.775Z,0.00
2018-03-20T01:55:51.771Z,0.00
2018-03-20T01:56:51.758Z,0.00
2018-03-20T01:57:51.754Z,0.00
2018-03-20T01:59:12.757Z,0.00
2018-03-20T01:59:51.737Z,0.00
2018-03-20T02:00:51.735Z,0.00
2018-03-20T02:01:51.726Z,0.00
2018-03-20T02:02:51.723Z,0.00
2018-03-20T02:03:51.716Z,0.00
2018-03-20T02:05:12.714Z,0.00
2018-03-20T02:05:51.716Z,0.00
2018-03-20T02:06:51.701Z,0.00
2018-03-20T02:07:51.694Z,0.00
2018-03-20T02:08:51.678Z,0.00
2018-03-20T02:09:51.672Z,0.00
2018-03-20T02:11:12.680Z,0.00
2018-03-20T02:11:51.659Z,0.00
2018-03-20T02:12:51.651Z,0.00
2018-03-20T02:13:51.646Z,0.00
2018-03-20T02:14:51.638Z,0.00
2018-03-20T02:15:51.631Z,0.00
2018-03-20T02:17:12.628Z,0.00
2018-03-20T02:17:51.616Z,0.00
2018-03-20T02:18:51.608Z,0.00
2018-03-20T02:19:51.605Z,0.00
2018-03-20T02:20:51.603Z,0.00
2018-03-20T02:21:51.586Z,0.00
2018-03-20T02:23:12.593Z,0.00
2018-03-20T02:23:51.585Z,0.00
2018-03-20T02:24:51.572Z,0.00
2018-03-20T02:25:51.566Z,0.00
2018-03-20T02:26:51.558Z,0.00
2018-03-20T02:27:51.555Z,0.00
2018-03-20T02:29:12.552Z,0.00
2018-03-20T02:29:51.551Z,0.00
2018-03-20T02:30:51.529Z,0.00
2018-03-20T02:31:51.525Z,0.00
2018-03-20T02:32:51.518Z,0.00
2018-03-20T02:33:51.508Z,0.00
2018-03-20T02:35:12.506Z,0.00
2018-03-20T02:35:51.495Z,0.00
2018-03-20T02:36:51.491Z,0.00
2018-03-20T02:37:51.495Z,0.00
2018-03-20T02:38:51.476Z,0.00
2018-03-20T02:39:51.471Z,0.00
2018-03-20T02:41:12.474Z,0.00
2018-03-20T02:41:51.454Z,0.00
2018-03-20T02:42:51.449Z,0.00
2018-03-20T02:43:51.446Z,0.00
2018-03-20T02:44:51.445Z,0.00
2018-03-20T02:45:51.430Z,0.00
2018-03-20T02:47:12.427Z,0.00
2018-03-20T02:47:51.419Z,0.00
2018-03-20T02:48:51.409Z,0.00
2018-03-20T02:49:51.398Z,0.00
2018-03-20T02:50:51.397Z,0.00
2018-03-20T02:51:51.391Z,0.00
2018-03-20T02:53:12.387Z,0.00
2018-03-20T02:53:51.380Z,0.00
2018-03-20T02:54:51.424Z,0.00
2018-03-20T02:55:51.361Z,0.00
2018-03-20T02:56:51.358Z,0.00
2018-03-20T02:57:51.349Z,0.00
2018-03-20T02:59:12.349Z,0.00
2018-03-20T02:59:51.335Z,0.00
2018-03-20T03:00:51.327Z,0.00
2018-03-20T03:01:51.321Z,0.00
2018-03-20T03:02:51.314Z,0.00
2018-03-20T03:03:51.308Z,0.00
2018-03-20T03:05:12.306Z,0.00
2018-03-20T03:05:51.307Z,0.00
2018-03-20T03:06:51.293Z,0.00
2018-03-20T03:07:51.286Z,0.00
2018-03-20T03:08:51.278Z,0.00
2018-03-20T03:09:51.271Z,0.00
2018-03-20T03:11:12.264Z,0.00
2018-03-20T03:11:51.249Z,0.00
2018-03-20T03:12:51.244Z,0.00
2018-03-20T03:13:51.240Z,0.00
2018-03-20T03:14:51.229Z,0.00
2018-03-20T03:15:51.226Z,0.00
2018-03-20T03:17:12.221Z,0.00
2018-03-20T03:17:51.216Z,0.00
2018-03-20T03:18:51.208Z,0.00
2018-03-20T03:19:51.211Z,0.00
2018-03-20T03:20:51.226Z,0.00
2018-03-20T03:21:51.211Z,0.00
2018-03-20T03:23:12.185Z,0.00
2018-03-20T03:23:51.171Z,0.00
2018-03-20T03:24:51.167Z,0.00
2018-03-20T03:25:51.164Z,0.00
2018-03-20T03:26:51.150Z,0.00
2018-03-20T03:27:51.149Z,0.00
2018-03-20T03:29:12.143Z,0.00
2018-03-20T03:29:51.129Z,0.00
2018-03-20T03:30:51.123Z,0.00
2018-03-20T03:31:51.124Z,0.00
2018-03-20T03:32:51.110Z,0.00
2018-03-20T03:33:51.109Z,0.00
2018-03-20T03:35:12.100Z,0.00
2018-03-20T03:35:51.092Z,0.00
2018-03-20T03:36:51.084Z,0.00
2018-03-20T03:37:51.083Z,0.00
2018-03-20T03:38:51.074Z,0.00
2018-03-20T03:39:51.064Z,0.00
2018-03-20T03:41:12.065Z,0.00
2018-03-20T03:41:51.048Z,0.00
2018-03-20T03:42:51.039Z,0.00
2018-03-20T03:43:51.035Z,0.00
2018-03-20T03:44:51.033Z,0.00
2018-03-20T03:45:51.023Z,0.00
2018-03-20T03:47:12.018Z,0.00
2018-03-20T03:47:51.008Z,0.00
2018-03-20T03:48:51.001Z,0.00
2018-03-20T03:49:50.993Z,0.00
2018-03-20T03:50:50.995Z,0.00
2018-03-20T03:51:50.992Z,0.00
2018-03-20T03:53:11.982Z,0.00
2018-03-20T03:53:50.971Z,0.00
2018-03-20T03:54:50.958Z,0.00
2018-03-20T03:55:50.958Z,0.00
2018-03-20T03:56:50.945Z,0.00
2018-03-20T03:57:50.939Z,0.00
2018-03-20T03:59:11.943Z,0.00
2018-03-20T03:59:50.927Z,0.00
2018-03-20T04:00:50.915Z,0.00
2018-03-20T04:01:50.918Z,0.00
2018-03-20T04:02:50.908Z,0.00
2018-03-20T04:03:50.899Z,0.00
2018-03-20T04:05:11.902Z,0.00
2018-03-20T04:05:50.886Z,0.00
2018-03-20T04:06:50.880Z,0.00
2018-03-20T04:07:50.877Z,0.00
2018-03-20T04:08:50.872Z,0.00
2018-03-20T04:09:50.859Z,0.00
2018-03-20T04:11:11.872Z,0.00
2018-03-20T04:11:50.861Z,0.00
2018-03-20T04:12:50.837Z,0.00
2018-03-20T04:13:50.831Z,0.00
2018-03-20T04:14:50.827Z,0.00
2018-03-20T04:15:50.822Z,0.00
2018-03-20T04:17:11.849Z,0.00
2018-03-20T04:17:50.805Z,0.00
2018-03-20T04:18:50.800Z,0.00
2018-03-20T04:19:50.801Z,0.00
2018-03-20T04:20:50.825Z,0.00
2018-03-20T04:21:50.789Z,0.00
2018-03-20T04:23:11.810Z,0.00
2018-03-20T04:23:50.765Z,0.00
2018-03-20T04:24:50.770Z,0.00
2018-03-20T04:25:50.755Z,0.00
2018-03-20T04:26:50.753Z,0.00
2018-03-20T04:27:50.735Z,0.00
2018-03-20T04:29:11.747Z,0.00
2018-03-20T04:29:50.723Z,0.00
2018-03-20T04:30:50.715Z,0.00
2018-03-20T04:31:50.711Z,0.00
2018-03-20T04:32:50.710Z,0.00
2018-03-20T04:33:50.712Z,0.00
2018-03-20T04:35:11.698Z,0.00
2018-03-20T04:35:50.692Z,0.00
2018-03-20T04:36:50.683Z,0.00
2018-03-20T04:37:50.671Z,0.00
2018-03-20T04:38:50.674Z,0.00
2018-03-20T04:39:50.670Z,0.00
2018-03-20T04:41:11.670Z,0.00
2018-03-20T04:41:50.647Z,0.00
2018-03-20T04:42:50.639Z,0.00
2018-03-20T04:43:50.647Z,0.00
2018-03-20T04:44:50.620Z,0.00
2018-03-20T04:45:50.617Z,0.00
2018-03-20T04:47:11.618Z,4.00
2018-03-20T04:47:50.602Z,4.00
2018-03-20T04:48:50.610Z,4.00
2018-03-20T04:49:50.604Z,4.00
2018-03-20T04:50:50.584Z,0.00
2018-03-20T04:51:50.579Z,0.00
2018-03-20T04:53:11.576Z,0.00
2018-03-20T04:53:50.565Z,0.00
2018-03-20T04:54:50.558Z,0.00
2018-03-20T04:55:50.546Z,0.00
2018-03-20T04:56:50.540Z,0.00
2018-03-20T04:57:50.536Z,0.00
2018-03-20T04:59:11.565Z,0.00
2018-03-20T04:59:50.520Z,0.00
2018-03-20T05:00:50.506Z,0.00
2018-03-20T05:01:50.504Z,0.00
2018-03-20T05:02:50.502Z,0.00
2018-03-20T05:03:50.486Z,0.00
2018-03-20T05:05:11.505Z,0.00
2018-03-20T05:05:50.471Z,0.00
2018-03-20T05:06:50.465Z,0.00
2018-03-20T05:07:50.452Z,0.00
2018-03-20T05:08:50.442Z,0.00
2018-03-20T05:09:50.436Z,4.00
2018-03-20T05:11:11.433Z,4.00
2018-03-20T05:11:50.422Z,0.00
2018-03-20T05:12:50.420Z,4.00
2018-03-20T05:13:50.406Z,4.00
2018-03-20T05:14:50.398Z,4.00
2018-03-20T05:15:50.394Z,4.00
2018-03-20T05:17:11.388Z,4.00
2018-03-20T05:17:50.393Z,8.00
2018-03-20T05:18:50.385Z,8.00
2018-03-20T05:19:50.362Z,12.00
2018-03-20T05:20:50.346Z,8.00
2018-03-20T05:21:50.336Z,8.00
2018-03-20T05:23:11.337Z,16.00
2018-03-20T05:23:50.326Z,16.00
2018-03-20T05:24:50.351Z,16.00
2018-03-20T05:25:50.312Z,16.00
2018-03-20T05:26:50.307Z,20.00
2018-03-20T05:27:50.295Z,20.00
2018-03-20T05:29:11.290Z,24.00
2018-03-20T05:29:50.283Z,28.00
2018-03-20T05:30:50.268Z,28.00
2018-03-20T05:31:50.274Z,32.00
2018-03-20T05:32:50.254Z,36.00
2018-03-20T05:33:50.239Z,40.00
2018-03-20T05:35:11.242Z,44.00
2018-03-20T05:35:50.228Z,48.00
2018-03-20T05:36:50.235Z,52.00
2018-03-20T05:37:50.215Z,56.00
2018-03-20T05:38:50.206Z,60.00
2018-03-20T05:39:50.200Z,64.00
2018-03-20T05:41:11.198Z,68.00
2018-03-20T05:41:50.188Z,72.00
2018-03-20T05:42:50.177Z,76.00
2018-03-20T05:43:50.174Z,84.00
2018-03-20T05:44:50.156Z,88.00
2018-03-20T05:45:50.153Z,96.00
2018-03-20T05:47:11.149Z,96.00
2018-03-20T05:47:50.130Z,100.00
2018-03-20T05:48:50.127Z,108.00
2018-03-20T05:49:50.114Z,112.00
2018-03-20T05:50:50.107Z,116.00
2018-03-20T05:51:50.109Z,124.00
2018-03-20T05:53:11.101Z,128.00
2018-03-20T05:53:50.102Z,136.00
2018-03-20T05:54:50.077Z,136.00
2018-03-20T05:55:50.072Z,144.00
2018-03-20T05:56:50.059Z,148.00
2018-03-20T05:57:50.052Z,156.00
2018-03-20T05:59:11.047Z,164.00
2018-03-20T05:59:50.036Z,168.00
2018-03-20T06:00:50.030Z,176.00
2018-03-20T06:01:50.022Z,176.00
2018-03-20T06:02:50.023Z,184.00
2018-03-20T06:03:50.006Z,188.00
2018-03-20T06:05:11.003Z,192.00
2018-03-20T06:05:49.996Z,204.00
2018-03-20T06:06:49.981Z,208.00
2018-03-20T06:07:49.984Z,216.00
2018-03-20T06:08:49.962Z,228.00
2018-03-20T06:09:49.954Z,240.00
2018-03-20T06:11:10.953Z,252.00
2018-03-20T06:11:49.940Z,264.00
2018-03-20T06:12:49.933Z,276.00
2018-03-20T06:13:49.923Z,288.00
2018-03-20T06:14:49.911Z,304.00
2018-03-20T06:15:49.913Z,328.00
2018-03-20T06:17:10.903Z,356.00
2018-03-20T06:17:49.903Z,392.00
2018-03-20T06:18:49.885Z,424.00
2018-03-20T06:19:49.878Z,460.00
2018-03-20T06:20:49.870Z,496.00
2018-03-20T06:21:49.883Z,516.00
2018-03-20T06:23:10.857Z,536.00
2018-03-20T06:23:49.844Z,556.00
2018-03-20T06:24:49.836Z,572.00
2018-03-20T06:25:49.824Z,588.00
2018-03-20T06:26:49.819Z,516.00
2018-03-20T06:27:49.813Z,548.00
2018-03-20T06:29:10.804Z,652.00
2018-03-20T06:29:49.876Z,672.00
2018-03-20T06:30:49.784Z,692.00
2018-03-20T06:31:49.781Z,708.00
2018-03-20T06:32:49.772Z,672.00
2018-03-20T06:33:49.803Z,688.00
2018-03-20T06:35:10.761Z,736.00
2018-03-20T06:35:49.748Z,752.00
2018-03-20T06:36:49.734Z,828.00
2018-03-20T06:37:49.732Z,848.00
2018-03-20T06:38:49.733Z,872.00
2018-03-20T06:39:49.734Z,900.00
2018-03-20T06:41:10.711Z,924.00
2018-03-20T06:41:49.695Z,944.00
2018-03-20T06:42:49.687Z,968.00
2018-03-20T06:43:49.681Z,988.00
2018-03-20T06:44:49.671Z,1012.00
2018-03-20T06:45:49.671Z,1036.00
2018-03-20T06:47:10.677Z,1060.00
2018-03-20T06:47:49.650Z,1084.00
2018-03-20T06:48:49.640Z,1104.00
2018-03-20T06:49:49.630Z,1128.00
2018-03-20T06:50:49.625Z,1148.00
2018-03-20T06:51:49.622Z,1168.00
2018-03-20T06:53:10.616Z,1192.00
2018-03-20T06:53:49.605Z,1208.00
2018-03-20T06:54:49.594Z,1232.00
2018-03-20T06:55:49.590Z,1256.00
2018-03-20T06:56:49.574Z,1284.00
2018-03-20T06:57:49.567Z,1304.00
2018-03-20T06:59:10.563Z,1320.00
2018-03-20T06:59:49.555Z,1340.00
2018-03-20T07:00:49.544Z,1360.00
2018-03-20T07:01:49.538Z,1392.00
2018-03-20T07:02:49.533Z,1420.00
2018-03-20T07:03:49.527Z,1420.00
2018-03-20T07:05:10.518Z,1388.00
2018-03-20T07:05:49.510Z,1344.00
2018-03-20T07:06:49.501Z,1320.00
2018-03-20T07:07:49.495Z,1348.00
2018-03-20T07:08:49.478Z,1384.00
2018-03-20T07:09:49.473Z,1408.00
2018-03-20T07:11:10.477Z,1404.00
2018-03-20T07:11:49.518Z,1344.00
2018-03-20T07:12:49.446Z,1316.00
2018-03-20T07:13:49.440Z,1312.00
2018-03-20T07:14:49.440Z,1336.00
2018-03-20T07:15:49.436Z,1392.00
2018-03-20T07:17:10.422Z,1464.00
2018-03-20T07:17:49.410Z,1584.00
2018-03-20T07:18:49.409Z,1492.00
2018-03-20T07:19:49.397Z,1132.00
2018-03-20T07:20:49.391Z,1092.00
2018-03-20T07:21:49.378Z,1184.00
2018-03-20T07:23:10.377Z,988.00
2018-03-20T07:23:49.365Z,1004.00
2018-03-20T07:24:49.353Z,1068.00
2018-03-20T07:25:49.346Z,1120.00
2018-03-20T07:26:49.347Z,1164.00
2018-03-20T07:27:49.340Z,1280.00
2018-03-20T07:29:10.334Z,1408.00
2018-03-20T07:29:49.326Z,2116.00
2018-03-20T07:30:49.312Z,1516.00
2018-03-20T07:31:49.306Z,1924.00
2018-03-20T07:32:49.291Z,1820.00
2018-03-20T07:33:49.292Z,1884.00
2018-03-20T07:35:10.286Z,1460.00
2018-03-20T07:35:49.271Z,1340.00
2018-03-20T07:36:49.261Z,1240.00
2018-03-20T07:37:49.254Z,1096.00
2018-03-20T07:38:49.245Z,1008.00
2018-03-20T07:39:49.239Z,1156.00
2018-03-20T07:41:10.234Z,1056.00
2018-03-20T07:41:49.227Z,928.00
2018-03-20T07:42:49.220Z,1048.00
2018-03-20T07:43:49.217Z,1064.00
2018-03-20T07:44:49.199Z,1004.00
2018-03-20T07:45:49.196Z,996.00
2018-03-20T07:47:10.191Z,928.00
2018-03-20T07:47:49.178Z,908.00
2018-03-20T07:48:49.173Z,884.00
2018-03-20T07:49:49.162Z,860.00
2018-03-20T07:50:49.154Z,836.00
2018-03-20T07:51:49.148Z,856.00
2018-03-20T07:53:10.141Z,920.00
2018-03-20T07:53:49.128Z,928.00
2018-03-20T07:54:49.129Z,1064.00
2018-03-20T07:55:49.125Z,992.00
2018-03-20T07:56:49.132Z,952.00
2018-03-20T07:57:49.100Z,976.00
2018-03-20T07:59:10.106Z,920.00
2018-03-20T07:59:49.080Z,848.00
2018-03-20T08:00:49.072Z,832.00
2018-03-20T08:01:49.067Z,808.00
2018-03-20T08:02:49.058Z,800.00
2018-03-20T08:03:49.055Z,864.00
2018-03-20T08:05:10.060Z,964.00
2018-03-20T08:05:49.094Z,1180.00
2018-03-20T08:06:49.032Z,984.00
2018-03-20T08:07:49.080Z,1048.00
2018-03-20T08:08:49.014Z,1080.00
2018-03-20T08:09:49.025Z,1008.00
2018-03-20T08:11:10.010Z,936.00
2018-03-20T08:11:48.986Z,904.00
2018-03-20T08:12:48.982Z,900.00
2018-03-20T08:13:48.980Z,924.00
2018-03-20T08:14:48.965Z,924.00
2018-03-20T08:15:48.958Z,932.00
2018-03-20T08:17:09.957Z,932.00
2018-03-20T08:17:48.943Z,964.00
2018-03-20T08:18:48.938Z,952.00
2018-03-20T08:19:48.926Z,980.00
2018-03-20T08:20:48.919Z,1012.00
2018-03-20T08:21:48.914Z,1092.00
2018-03-20T08:23:09.908Z,1088.00
2018-03-20T08:23:48.902Z,1100.00
2018-03-20T08:24:48.884Z,1084.00
2018-03-20T08:25:48.875Z,1000.00
2018-03-20T08:26:48.874Z,904.00
2018-03-20T08:27:48.860Z,844.00
2018-03-20T08:29:09.860Z,780.00
2018-03-20T08:29:48.849Z,700.00
2018-03-20T08:30:48.839Z,620.00
2018-03-20T08:31:48.835Z,572.00
2018-03-20T08:32:48.827Z,556.00
2018-03-20T08:33:48.821Z,544.00
2018-03-20T08:35:09.815Z,544.00
2018-03-20T08:35:48.806Z,544.00
2018-03-20T08:36:48.788Z,544.00
2018-03-20T08:37:48.780Z,556.00
2018-03-20T08:38:48.780Z,560.00
2018-03-20T08:39:48.768Z,564.00
2018-03-20T08:41:09.764Z,568.00
2018-03-20T08:41:48.749Z,572.00
2018-03-20T08:42:48.749Z,580.00
2018-03-20T08:43:48.747Z,580.00
2018-03-20T08:44:48.732Z,568.00
2018-03-20T08:45:48.728Z,556.00
2018-03-20T08:47:09.723Z,540.00
2018-03-20T08:47:48.714Z,512.00
2018-03-20T08:48:48.694Z,484.00
2018-03-20T08:49:48.686Z,456.00
2018-03-20T08:50:48.678Z,448.00
2018-03-20T08:51:48.672Z,440.00
2018-03-20T08:53:09.672Z,436.00
2018-03-20T08:53:48.662Z,432.00
2018-03-20T08:54:48.648Z,432.00
2018-03-20T08:55:48.649Z,428.00
2018-03-20T08:56:48.633Z,412.00
2018-03-20T08:57:48.631Z,404.00
2018-03-20T08:59:09.623Z,400.00
2018-03-20T08:59:48.607Z,396.00
2018-03-20T09:00:48.597Z,396.00
2018-03-20T09:01:48.591Z,392.00
2018-03-20T09:02:48.584Z,400.00
2018-03-20T09:03:48.575Z,408.00
2018-03-20T09:05:09.569Z,416.00
2018-03-20T09:05:48.566Z,424.00
2018-03-20T09:06:48.553Z,432.00
2018-03-20T09:07:48.547Z,432.00
2018-03-20T09:08:48.534Z,432.00
2018-03-20T09:09:48.531Z,436.00
2018-03-20T09:11:09.525Z,436.00
2018-03-20T09:11:48.515Z,432.00
2018-03-20T09:12:48.504Z,448.00
2018-03-20T09:13:48.493Z,480.00
2018-03-20T09:14:48.489Z,500.00
2018-03-20T09:15:48.480Z,492.00
2018-03-20T09:17:09.477Z,480.00
2018-03-20T09:17:48.469Z,464.00
2018-03-20T09:18:48.455Z,456.00
2018-03-20T09:19:48.446Z,456.00
2018-03-20T09:20:48.444Z,448.00
2018-03-20T09:21:48.436Z,440.00
2018-03-20T09:23:09.440Z,428.00
2018-03-20T09:23:48.418Z,424.00
2018-03-20T09:24:48.419Z,428.00
2018-03-20T09:25:48.401Z,440.00
2018-03-20T09:26:48.387Z,444.00
2018-03-20T09:27:48.385Z,444.00
2018-03-20T09:29:09.380Z,456.00
2018-03-20T09:29:48.365Z,480.00
2018-03-20T09:30:48.357Z,544.00
2018-03-20T09:31:48.360Z,624.00
2018-03-20T09:32:48.349Z,660.00
2018-03-20T09:33:48.335Z,664.00
2018-03-20T09:35:09.332Z,632.00
2018-03-20T09:35:48.317Z,576.00
2018-03-20T09:36:48.317Z,528.00
2018-03-20T09:37:48.299Z,484.00
2018-03-20T09:38:48.294Z,452.00
2018-03-20T09:39:48.287Z,432.00
2018-03-20T09:41:09.279Z,424.00
2018-03-20T09:41:48.267Z,408.00
2018-03-20T09:42:48.262Z,400.00
2018-03-20T09:43:48.287Z,396.00
2018-03-20T09:44:48.248Z,396.00
2018-03-20T09:45:48.240Z,400.00
2018-03-20T09:47:09.234Z,404.00
2018-03-20T09:47:48.223Z,408.00
2018-03-20T09:48:48.224Z,424.00
2018-03-20T09:49:48.207Z,432.00
2018-03-20T09:50:48.195Z,444.00
2018-03-20T09:51:48.187Z,448.00
2018-03-20T09:53:09.183Z,452.00
2018-03-20T09:53:48.169Z,460.00
2018-03-20T09:54:48.166Z,460.00
2018-03-20T09:55:48.157Z,468.00
2018-03-20T09:56:48.152Z,488.00
2018-03-20T09:57:48.146Z,516.00
2018-03-20T09:59:09.146Z,560.00
2018-03-20T09:59:48.128Z,616.00
2018-03-20T10:00:48.131Z,660.00
2018-03-20T10:01:48.106Z,672.00
2018-03-20T10:02:48.100Z,684.00
2018-03-20T10:03:48.098Z,700.00
2018-03-20T10:05:09.092Z,700.00
2018-03-20T10:05:48.076Z,676.00
2018-03-20T10:06:48.069Z,608.00
2018-03-20T10:07:48.065Z,568.00
2018-03-20T10:08:48.051Z,508.00
2018-03-20T10:09:48.047Z,476.00
2018-03-20T10:11:09.047Z,476.00
2018-03-20T10:11:48.026Z,460.00
2018-03-20T10:12:48.021Z,456.00
2018-03-20T10:13:48.010Z,468.00
2018-03-20T10:14:48.002Z,488.00
2018-03-20T10:15:47.994Z,500.00
2018-03-20T10:17:08.988Z,516.00
2018-03-20T10:17:47.978Z,528.00
2018-03-20T10:18:47.972Z,540.00
2018-03-20T10:19:47.982Z,556.00
2018-03-20T10:20:47.954Z,564.00
2018-03-20T10:21:47.951Z,568.00
2018-03-20T10:23:08.947Z,568.00
2018-03-20T10:23:47.932Z,568.00
2018-03-20T10:24:47.926Z,576.00
2018-03-20T10:25:47.913Z,588.00
2018-03-20T10:26:47.907Z,620.00
2018-03-20T10:27:47.917Z,668.00
2018-03-20T10:29:08.891Z,696.00
2018-03-20T10:29:47.879Z,692.00
2018-03-20T10:30:47.872Z,696.00
2018-03-20T10:31:47.870Z,740.00
2018-03-20T10:32:47.860Z,812.00
2018-03-20T10:33:47.855Z,920.00
2018-03-20T10:35:08.850Z,1052.00
2018-03-20T10:35:47.836Z,1128.00
2018-03-20T10:36:47.826Z,1160.00
2018-03-20T10:37:47.817Z,1096.00
2018-03-20T10:38:47.811Z,968.00
2018-03-20T10:39:47.799Z,824.00
2018-03-20T10:41:08.801Z,712.00
2018-03-20T10:41:47.783Z,632.00
2018-03-20T10:42:47.780Z,580.00
2018-03-20T10:43:47.815Z,548.00
2018-03-20T10:44:47.762Z,520.00
2018-03-20T10:45:47.758Z,488.00
2018-03-20T10:47:08.757Z,456.00
2018-03-20T10:47:47.745Z,428.00
2018-03-20T10:48:47.728Z,400.00
2018-03-20T10:49:47.719Z,388.00
2018-03-20T10:50:47.710Z,380.00
2018-03-20T10:51:47.707Z,388.00
2018-03-20T10:53:08.710Z,396.00
2018-03-20T10:53:47.688Z,396.00
2018-03-20T10:54:47.680Z,384.00
2018-03-20T10:55:47.672Z,392.00
2018-03-20T10:56:47.673Z,404.00
2018-03-20T10:57:47.657Z,412.00
2018-03-20T10:59:08.660Z,416.00
2018-03-20T10:59:47.640Z,412.00
2018-03-20T11:00:47.634Z,408.00
2018-03-20T11:01:47.620Z,412.00
2018-03-20T11:02:47.613Z,424.00
2018-03-20T11:03:47.605Z,444.00
2018-03-20T11:05:08.604Z,468.00
2018-03-20T11:05:47.592Z,492.00
2018-03-20T11:06:47.594Z,520.00
2018-03-20T11:07:47.576Z,552.00
2018-03-20T11:08:47.575Z,588.00
2018-03-20T11:09:47.560Z,612.00
2018-03-20T11:11:08.562Z,628.00
2018-03-20T11:11:47.541Z,632.00
2018-03-20T11:12:47.571Z,620.00
2018-03-20T11:13:47.587Z,592.00
2018-03-20T11:14:47.543Z,568.00
2018-03-20T11:15:47.562Z,536.00
2018-03-20T11:17:08.548Z,504.00
2018-03-20T11:17:47.515Z,488.00
2018-03-20T11:18:47.489Z,484.00
2018-03-20T11:19:47.555Z,484.00
2018-03-20T11:20:47.473Z,500.00
2018-03-20T11:21:47.481Z,516.00
2018-03-20T11:23:08.464Z,520.00
2018-03-20T11:23:47.504Z,524.00
2018-03-20T11:24:47.442Z,536.00
2018-03-20T11:25:47.499Z,544.00
2018-03-20T11:26:47.423Z,564.00
2018-03-20T11:27:47.471Z,584.00
2018-03-20T11:29:08.415Z,604.00
2018-03-20T11:29:47.441Z,628.00
2018-03-20T11:30:47.396Z,652.00
2018-03-20T11:31:47.420Z,660.00
2018-03-20T11:32:47.374Z,660.00
2018-03-20T11:33:47.405Z,664.00
2018-03-20T11:35:08.389Z,668.00
2018-03-20T11:35:47.401Z,684.00
2018-03-20T11:36:47.341Z,712.00
2018-03-20T11:37:47.370Z,740.00
2018-03-20T11:38:47.336Z,756.00
2018-03-20T11:39:47.352Z,804.00
2018-03-20T11:41:08.323Z,860.00
2018-03-20T11:41:47.336Z,872.00
2018-03-20T11:42:47.293Z,812.00
2018-03-20T11:43:47.363Z,760.00
2018-03-20T11:44:47.278Z,720.00
2018-03-20T11:45:47.285Z,668.00
2018-03-20T11:47:08.272Z,612.00
2018-03-20T11:47:47.260Z,580.00
2018-03-20T11:48:47.246Z,552.00
2018-03-20T11:49:47.242Z,528.00
2018-03-20T11:50:47.254Z,512.00
2018-03-20T11:51:47.219Z,504.00
2018-03-20T11:53:08.227Z,508.00
2018-03-20T11:53:47.202Z,528.00
2018-03-20T11:54:47.200Z,556.00
2018-03-20T11:55:47.189Z,584.00
2018-03-20T11:56:47.181Z,612.00
2018-03-20T11:57:47.172Z,652.00
2018-03-20T11:59:08.168Z,680.00
2018-03-20T11:59:47.163Z,692.00
2018-03-20T12:00:47.154Z,700.00
2018-03-20T12:01:47.147Z,688.00
2018-03-20T12:02:47.136Z,684.00
2018-03-20T12:03:47.132Z,688.00
2018-03-20T12:05:08.129Z,700.00
2018-03-20T12:05:47.109Z,708.00
2018-03-20T12:06:47.101Z,716.00
2018-03-20T12:07:47.091Z,712.00
2018-03-20T12:08:47.089Z,680.00
2018-03-20T12:09:47.078Z,640.00
2018-03-20T12:11:08.077Z,596.00
2018-03-20T12:11:47.060Z,552.00
2018-03-20T12:12:47.060Z,520.00
2018-03-20T12:13:47.049Z,500.00
2018-03-20T12:14:47.043Z,484.00
2018-03-20T12:15:47.033Z,456.00
2018-03-20T12:17:08.027Z,428.00
2018-03-20T12:17:47.033Z,400.00
2018-03-20T12:18:47.003Z,372.00
2018-03-20T12:19:47.006Z,352.00
2018-03-20T12:20:46.993Z,336.00
2018-03-20T12:21:46.977Z,332.00
2018-03-20T12:23:07.980Z,340.00
2018-03-20T12:23:46.973Z,348.00
2018-03-20T12:24:46.960Z,340.00
2018-03-20T12:25:46.952Z,336.00
2018-03-20T12:26:46.943Z,332.00
2018-03-20T12:27:46.946Z,332.00
2018-03-20T12:29:07.929Z,344.00
2018-03-20T12:29:46.916Z,360.00
2018-03-20T12:30:46.909Z,368.00
2018-03-20T12:31:46.898Z,372.00
2018-03-20T12:32:46.890Z,368.00
2018-03-20T12:33:46.882Z,360.00
2018-03-20T12:35:07.881Z,352.00
2018-03-20T12:35:46.875Z,356.00
2018-03-20T12:36:46.866Z,368.00
2018-03-20T12:37:46.910Z,380.00
2018-03-20T12:38:46.845Z,392.00
2018-03-20T12:39:46.846Z,396.00
2018-03-20T12:41:07.836Z,420.00
2018-03-20T12:41:46.816Z,456.00
2018-03-20T12:42:46.828Z,472.00
2018-03-20T12:43:46.808Z,468.00
2018-03-20T12:44:46.797Z,464.00
2018-03-20T12:45:46.787Z,456.00
2018-03-20T12:47:07.782Z,464.00
2018-03-20T12:47:46.770Z,484.00